Terminal Aerodrome Forecast
Issued by NWS

Home | Current Version | Previous Version | Text Only | Print | Product List | Glossary On
Versions: 1 2 3 4 5 6 7 8 9 10 11 12 13 14 15 16 17 18 19 20
000
FTUS42 KMLB 012100 AAA
TAFSFB
TAF AMD
KSFB 012138Z 0122/0218 07006KT P6SM VCSH SCT008 BKN012 OVC080
     FM020300 VRB03KT P6SM SCT012 BKN040
     FM021300 01004KT P6SM BKN025=

USA.gov is the U.S. government's official web portal to all federal, state and local government web resources and services.